Wenasoga, Mississippi
Current Conditions -  °F | °C
As of 6:55 PM on Monday 22 Dec 2014 (Local Time) from KCRX Reporting Station
Haze Haze  
Wind Chill: 55°   Ceiling: 400
Heat Index: 55°   Visibility: 2.5mi
Dew Point: 54°   Wind: 7mph
Humidity: 94%   Direction: 160°SSE
Pressure: 29.68"   Gusts: NA
Location:  34.9238°N, 88.6234°W
Report Text: KCRX 230055Z AUTO 16006KT 2 1/2SM BR OVC004 13/12 A2968 RMK AO2
Loading
Personal Weather Stations






























Interactive Weather Map New forecast layout! Learn more

10-Day Weather Forecast

Advertisements
Track Severe Weather on mobile